Time;durP1;ratioP1;P1;durP2;ratioP2;P2;SDS_P1;SDS_P2;PMS_P1;PMS_P2;Temp;Humidity;BMP_temperature;BMP_pressure;BME280_temperature;BME280_humidity;BME280_pressure;Samples;Min_cycle;Max_cycle;Signal;HPM_P1;HPM_P2
2022/06/24 00:02:13;;;;;;;5.95;5.00;;;20.60;99.90;;;-141.84;43.59;20508.97;5095016;28;20628;-58
2022/06/24 00:04:42;;;;;;;7.45;5.28;;;20.60;99.90;;;-141.84;43.74;20508.97;5093950;28;20291;-58
2022/06/24 00:07:17;;;;;;;5.10;4.63;;;20.60;99.90;;;-141.84;43.97;20508.97;5075093;28;20227;-59
2022/06/24 00:09:47;;;;;;;5.63;4.82;;;20.60;99.90;;;-141.84;44.09;20496.78;5074026;28;20284;-58
2022/06/24 00:12:18;;;;;;;5.75;4.60;;;20.60;99.90;;;-141.84;44.16;20472.38;5074213;28;20316;-58
2022/06/24 00:14:58;;;;;;;5.18;4.78;;;20.50;99.90;;;-141.84;44.29;20458.16;5074408;28;20226;-59
2022/06/24 00:17:33;;;;;;;5.57;4.53;;;20.40;99.90;;;-141.84;44.35;20496.78;5074664;28;20311;-59
2022/06/24 00:20:05;;;;;;;4.88;4.22;;;20.50;99.90;;;-141.84;44.16;20472.38;5074143;28;20187;-59
2022/06/24 00:22:44;;;;;;;6.80;4.70;;;20.40;99.90;;;-141.84;44.54;20452.06;5068161;28;20308;-58
2022/06/24 00:25:18;;;;;;;4.43;3.90;;;20.40;99.90;;;-141.84;45.00;20439.84;5054164;28;20201;-59
2022/06/24 00:28:01;;;;;;;4.93;4.53;;;20.40;99.90;;;-141.84;45.22;20393.09;5054270;28;20267;-58
2022/06/24 00:30:35;;;;;;;5.10;4.60;;;20.30;99.90;;;-141.84;45.29;20447.97;5053879;28;20598;-60
2022/06/24 00:33:13;;;;;;;4.50;4.10;;;20.20;99.90;;;-141.84;45.43;20421.56;5053949;28;20255;-58
2022/06/24 00:35:47;;;;;;;4.88;4.45;;;20.20;99.90;;;-141.84;45.71;20452.06;5063546;28;20766;-60
2022/06/24 00:38:23;;;;;;;4.70;4.30;;;20.20;99.90;;;-141.84;45.77;20354.47;5074191;28;20344;-58
2022/06/24 00:40:57;;;;;;;4.95;4.10;;;20.10;99.90;;;-141.84;46.19;20364.66;5073844;28;20180;-59
2022/06/24 00:43:30;;;;;;;5.28;4.70;;;20.00;99.90;;;-141.84;45.94;20387.00;5074409;28;20280;-58
2022/06/24 00:46:09;;;;;;;4.97;4.45;;;20.00;99.90;;;-141.84;46.23;20370.75;5073670;28;20306;-59
2022/06/24 00:48:40;;;;;;;4.80;4.20;;;19.90;99.90;;;-141.84;46.18;20362.63;5073816;28;20749;-58
2022/06/24 00:51:08;;;;;;;4.82;4.40;;;19.90;99.90;;;-141.84;46.04;20391.06;5073709;28;20224;-59
2022/06/24 00:53:43;;;;;;;4.53;4.22;;;19.90;99.90;;;-141.84;46.19;20338.22;5087027;28;20228;-59
2022/06/24 00:56:16;;;;;;;4.70;3.85;;;19.90;99.90;;;-141.84;46.23;20354.47;5093822;28;20322;-60
2022/06/24 00:58:53;;;;;;;4.72;4.28;;;19.80;99.90;;;-141.84;46.48;20334.16;5094198;28;20183;-59
2022/06/24 01:01:28;;;;;;;4.60;4.20;;;19.80;99.90;;;-141.84;46.29;20360.59;5094002;28;20242;-59
2022/06/24 01:03:58;;;;;;;4.20;3.90;;;19.80;99.90;;;-141.84;46.17;20354.47;5092524;28;20210;-59
2022/06/24 01:06:28;;;;;;;6.13;4.00;;;19.80;99.90;;;-141.84;45.95;20346.34;5076345;28;20295;-60
2022/06/24 01:08:58;;;;;;;4.90;4.00;;;19.80;99.90;;;-141.84;45.84;20346.34;5073362;28;20228;-59
2022/06/24 01:11:29;;;;;;;5.18;4.00;;;19.80;99.90;;;-141.84;45.81;20364.66;5072986;28;20252;-59
2022/06/24 01:13:58;;;;;;;4.70;3.65;;;19.80;99.90;;;-141.84;45.36;20374.81;5073252;28;20185;-59
2022/06/24 01:16:27;;;;;;;4.13;3.83;;;19.80;99.90;;;-141.84;45.29;20393.09;5073775;28;20205;-59
2022/06/24 01:19:02;;;;;;;4.07;3.78;;;19.80;99.90;;;-141.84;45.40;20395.13;5073355;28;20224;-60
2022/06/24 01:21:34;;;;;;;4.43;4.07;;;19.90;99.90;;;-141.84;45.86;20348.38;5072893;28;20224;-60
2022/06/24 01:24:08;;;;;;;5.30;3.78;;;19.80;99.90;;;-141.84;46.18;20334.16;5053759;28;20308;-60
2022/06/24 01:26:39;;;;;;;4.15;3.78;;;19.80;99.90;;;-141.84;45.81;20352.44;5052999;28;20229;-58
2022/06/24 01:29:12;;;;;;;4.70;4.30;;;19.70;99.90;;;-141.84;45.62;20356.50;5053399;28;20254;-60
2022/06/24 01:31:40;;;;;;;6.35;4.03;;;19.70;99.90;;;-141.84;45.49;20399.19;5053283;28;20212;-59
2022/06/24 01:34:10;;;;;;;4.20;3.80;;;19.70;99.90;;;-141.84;45.49;20321.97;5053184;28;20220;-58
2022/06/24 01:36:40;;;;;;;3.80;3.50;;;19.70;99.90;;;-141.84;45.45;20354.47;5070295;28;20331;-59
2022/06/24 01:39:09;;;;;;;4.38;3.72;;;19.70;99.90;;;-141.84;45.45;20372.78;5072956;28;20251;-61
2022/06/24 01:41:38;;;;;;;6.47;4.10;;;19.70;99.90;;;-141.84;45.27;20350.41;5072230;28;20738;-60
2022/06/24 01:44:06;;;;;;;4.07;3.78;;;19.70;99.90;;;-141.84;45.78;20350.41;5072871;28;20226;-60
2022/06/24 01:46:34;;;;;;;4.72;4.38;;;19.70;99.90;;;-141.84;46.14;20309.75;5072801;28;20196;-59
2022/06/24 01:49:03;;;;;;;5.93;3.70;;;19.70;99.90;;;-141.84;46.06;20340.25;5079816;28;20223;-60
2022/06/24 01:51:33;;;;;;;4.72;3.88;;;19.70;99.90;;;-141.84;45.64;20350.41;5092653;28;20239;-59
2022/06/24 01:54:03;;;;;;;4.30;3.90;;;19.70;99.90;;;-141.84;45.67;20303.66;5092495;28;20235;-58
2022/06/24 01:56:32;;;;;;;6.57;4.15;;;19.70;99.90;;;-141.84;45.65;20362.63;5092746;28;20348;-60
2022/06/24 01:59:00;;;;;;;4.15;3.78;;;19.70;99.90;;;-141.84;45.71;20346.34;5092740;28;20224;-60
2022/06/24 02:01:28;;;;;;;4.30;3.90;;;19.60;99.90;;;-141.84;45.45;20397.16;5093287;28;20261;-58
2022/06/24 02:03:57;;;;;;;5.68;4.13;;;19.60;99.90;;;-141.84;45.43;20311.78;5092101;28;20726;-59
2022/06/24 02:06:25;;;;;;;4.20;3.70;;;19.60;99.90;;;-141.84;45.88;20328.06;5076419;28;20255;-60
2022/06/24 02:08:56;;;;;;;4.20;3.80;;;19.60;99.90;;;-141.84;45.60;20326.03;5072081;28;20224;-58
2022/06/24 02:14:14;;;;;;;3.85;3.55;;;19.60;99.90;;;-141.84;46.09;20336.19;5072242;28;20577;-59
2022/06/24 02:16:43;;;;;;;3.60;3.38;;;19.60;99.90;;;-141.84;46.03;20340.25;5072063;28;20279;-59
2022/06/24 02:19:11;;;;;;;4.97;3.35;;;19.60;99.90;;;-141.84;46.25;20315.88;5072794;28;20207;-60
2022/06/24 02:21:40;;;;;;;3.70;3.40;;;19.50;99.90;;;-141.84;46.49;20309.75;5071917;28;20224;-59
2022/06/24 02:24:08;;;;;;;3.95;3.65;;;19.50;99.90;;;-141.84;46.12;20307.72;5050691;28;20626;-60
2022/06/24 02:26:38;;;;;;;3.50;3.30;;;19.50;99.90;;;-141.84;46.42;20279.28;5051537;28;20264;-59
2022/06/24 02:29:12;;;;;;;3.90;3.60;;;19.40;99.90;;;-141.84;46.31;20281.31;5051978;28;20236;-59
2022/06/24 02:31:41;;;;;;;3.60;3.30;;;19.40;99.90;;;-141.84;46.43;20305.69;5052434;28;20221;-58
2022/06/24 02:34:10;;;;;;;4.30;3.90;;;19.40;99.90;;;-141.84;46.32;20279.28;5051916;28;20217;-60
2022/06/24 02:36:38;;;;;;;4.00;3.70;;;19.40;99.90;;;-141.84;46.29;20346.34;5069203;28;20238;-59
2022/06/24 02:39:06;;;;;;;3.65;3.35;;;19.30;99.90;;;-141.84;46.42;20287.41;5071135;28;20643;-59
2022/06/24 02:41:34;;;;;;;3.80;3.50;;;19.30;99.90;;;-141.84;46.44;20283.34;5070889;28;20334;-58
2022/06/24 02:44:04;;;;;;;4.28;3.78;;;19.30;99.90;;;-141.84;46.29;20321.97;5071439;28;20252;-60
2022/06/24 02:46:32;;;;;;;4.53;3.70;;;19.40;99.90;;;-141.84;46.03;20297.56;5089352;28;20243;-60
2022/06/24 02:49:01;;;;;;;3.72;3.40;;;19.40;99.90;;;-141.84;46.29;20313.84;5091755;28;20283;-60
2022/06/24 02:51:29;;;;;;;3.95;3.53;;;19.40;99.90;;;-141.84;46.24;20336.19;5091672;28;20226;-58
2022/06/24 02:53:57;;;;;;;3.67;3.38;;;19.40;99.90;;;-141.84;46.25;20338.22;5091334;28;20227;-59
2022/06/24 02:56:25;;;;;;;4.28;3.80;;;19.40;99.90;;;-141.84;46.35;20301.63;5090717;28;20227;-60
2022/06/24 02:58:53;;;;;;;4.47;3.70;;;19.40;99.90;;;-141.84;46.28;20299.59;5090918;28;20206;-59
2022/06/24 03:01:23;;;;;;;4.53;3.90;;;19.40;99.90;;;-141.84;46.45;20289.44;5092164;28;20218;-60
2022/06/24 03:03:51;;;;;;;4.28;3.80;;;19.40;99.90;;;-141.84;46.33;20307.72;5091161;28;20281;-58
2022/06/24 03:06:19;;;;;;;3.90;3.60;;;19.40;99.90;;;-141.84;46.38;20309.75;5076268;28;20232;-59
2022/06/24 03:08:47;;;;;;;4.43;3.72;;;19.50;99.90;;;-141.84;46.08;20307.72;5071443;28;20244;-59
2022/06/24 03:11:16;;;;;;;4.00;3.60;;;19.50;99.90;;;-141.84;46.46;20303.66;5071130;28;20315;-59
2022/06/24 03:13:44;;;;;;;4.32;3.80;;;19.50;99.90;;;-141.84;46.12;20297.56;5071455;28;20225;-59
2022/06/24 03:16:12;;;;;;;4.55;3.90;;;19.50;99.90;;;-141.84;46.46;20299.59;5071882;28;20288;-60
2022/06/24 03:18:42;;;;;;;4.05;3.65;;;19.50;99.90;;;-141.84;46.74;20324.00;5071320;28;20308;-60
2022/06/24 03:21:10;;;;;;;3.50;3.30;;;19.50;99.90;;;-141.84;46.59;20315.88;5071012;28;20262;-58
2022/06/24 03:23:38;;;;;;;4.55;4.10;;;19.50;99.90;;;-141.84;46.55;20293.50;5055147;28;20229;-59
2022/06/24 03:26:06;;;;;;;3.85;3.55;;;19.50;99.90;;;-141.84;46.46;20275.22;5050933;28;20320;-60
2022/06/24 03:28:34;;;;;;;4.53;3.47;;;19.50;99.90;;;-141.84;46.70;20324.00;5051546;28;20303;-60
2022/06/24 03:31:02;;;;;;;4.07;3.70;;;19.60;99.90;;;-141.84;46.81;20283.34;5051041;28;20235;-59
2022/06/24 03:33:31;;;;;;;4.78;3.25;;;19.60;99.90;;;-141.84;46.88;20317.91;5054798;28;20224;-60
2022/06/24 03:36:08;;;;;;;3.90;3.58;;;19.60;99.90;;;-141.84;46.76;20267.09;5073178;28;20317;-59
2022/06/24 03:38:37;;;;;;;3.63;3.33;;;19.60;99.90;;;-141.84;46.90;20263.00;5075335;28;20224;-59
2022/06/24 03:41:12;;;;;;;3.85;3.55;;;19.60;99.90;;;-141.84;47.15;20295.53;5078600;28;20804;-60
2022/06/24 03:43:40;;;;;;;4.10;3.80;;;19.60;99.90;;;-141.84;46.97;20317.91;5095841;28;20242;-59
2022/06/24 03:46:09;;;;;;;3.88;3.58;;;19.60;99.90;;;-141.84;46.26;20362.63;5079574;28;20710;-59
2022/06/24 03:48:41;;;;;;;5.28;3.45;;;19.70;99.90;;;-141.84;46.73;20283.34;5074436;28;20731;-59
2022/06/24 03:51:10;;;;;;;6.65;3.90;;;19.70;99.90;;;-141.84;47.03;20332.13;5074508;28;20323;-60
2022/06/24 03:53:38;;;;;;;4.95;4.00;;;19.80;99.90;;;-141.84;47.22;20307.72;5059627;28;20232;-59
2022/06/24 03:56:10;;;;;;;4.40;3.95;;;19.80;99.90;;;-141.84;47.38;20265.03;5054401;28;20229;-58
2022/06/24 03:58:39;;;;;;;3.83;3.53;;;19.70;99.90;;;-141.84;47.03;20315.88;5055171;28;20292;-59
2022/06/24 04:01:07;;;;;;;4.60;3.75;;;19.80;99.90;;;-141.84;47.36;20338.22;5054716;28;20593;-59
2022/06/24 04:03:35;;;;;;;4.53;4.13;;;19.80;99.90;;;-141.84;47.16;20328.06;5054389;28;20332;-58
2022/06/24 04:06:04;;;;;;;4.20;3.80;;;19.90;99.90;;;-141.84;47.41;20340.25;5066925;28;20235;-60
2022/06/24 04:08:34;;;;;;;4.53;4.00;;;19.90;99.90;;;-141.84;47.17;20324.00;5074610;28;20311;-60
2022/06/24 04:11:10;;;;;;;4.30;3.80;;;19.90;99.90;;;-141.84;47.33;20328.06;5074628;28;20294;-59
2022/06/24 04:13:38;;;;;;;4.25;3.85;;;19.90;99.90;;;-141.84;47.19;20344.31;5075013;28;20227;-59
2022/06/24 04:16:07;;;;;;;4.50;4.10;;;19.90;99.90;;;-141.84;47.38;20399.19;5074020;28;20307;-59
2022/06/24 04:18:37;;;;;;;5.07;4.20;;;20.00;99.90;;;-141.84;47.19;20326.03;5073898;28;20224;-58
2022/06/24 04:21:13;;;;;;;4.65;4.10;;;20.00;99.90;;;-141.84;47.24;20354.47;5073990;28;20248;-60
2022/06/24 04:23:49;;;;;;;4.40;4.00;;;20.00;99.90;;;-141.84;47.61;20319.94;5058320;28;20344;-58
2022/06/24 04:26:19;;;;;;;4.38;3.97;;;20.00;99.90;;;-141.84;47.65;20330.09;5060613;28;20232;-59
2022/06/24 04:28:50;;;;;;;4.35;3.97;;;20.00;99.90;;;-141.84;47.20;20378.88;5074441;28;20205;-59
2022/06/24 04:31:18;;;;;;;4.30;4.00;;;20.10;99.90;;;-141.84;46.91;20374.81;5074927;28;20204;-60
2022/06/24 04:33:46;;;;;;;5.60;3.80;;;20.20;99.90;;;-141.84;47.10;20407.34;5073866;28;20753;-58
2022/06/24 04:36:15;;;;;;;5.07;4.43;;;20.30;99.90;;;-141.84;46.98;20427.66;5073426;28;20290;-60
2022/06/24 04:38:45;;;;;;;4.30;3.90;;;20.30;99.90;;;-141.84;46.60;20421.56;5088409;28;20798;-60
2022/06/24 04:41:16;;;;;;;4.20;3.60;;;20.40;99.90;;;-141.84;46.71;20395.13;5094396;28;20284;-59
2022/06/24 04:43:45;;;;;;;5.03;3.92;;;20.50;99.90;;;-141.84;46.39;20427.66;5094252;28;20249;-59
2022/06/24 04:46:13;;;;;;;5.03;3.95;;;20.60;99.90;;;-141.84;46.33;20450.03;5077972;28;20193;-59
2022/06/24 04:48:41;;;;;;;4.15;3.75;;;20.60;99.90;;;-141.84;45.74;20470.34;5073202;28;20236;-59
2022/06/24 04:51:12;;;;;;;4.28;3.80;;;20.80;99.90;;;-141.84;44.88;20578.09;5073673;28;20252;-58
2022/06/24 04:53:41;;;;;;;4.30;3.85;;;21.20;99.90;;;-141.84;40.19;21035.47;5073566;28;20891;-59
2022/06/24 04:56:10;;;;;;;3.97;3.67;;;22.60;99.90;;;-141.84;35.26;21555.97;5073274;28;20228;-59
2022/06/24 04:58:38;;;;;;;5.32;3.42;;;24.50;99.90;;;-141.84;32.70;21989.06;5074291;28;20205;-60
2022/06/24 05:01:06;;;;;;;4.35;3.40;;;26.30;99.90;;;-141.84;31.00;22340.88;5073516;28;20308;-60
2022/06/24 05:03:35;;;;;;;3.58;3.28;;;;;;;-141.84;28.97;22776.09;5072824;28;20238;-61
2022/06/24 05:06:03;;;;;;;4.97;3.30;;;29.40;95.90;;;-141.84;27.70;23010.00;5072844;28;20316;-59
2022/06/24 05:08:31;;;;;;;3.30;3.00;;;30.30;95.00;;;-141.84;27.76;23109.69;5067678;28;20221;-61
2022/06/24 05:11:00;;;;;;;3.17;2.92;;;31.20;94.90;;;-141.84;26.87;23408.72;5068507;28;20312;-60
2022/06/24 05:13:30;;;;;;;4.30;3.58;;;31.50;92.50;;;-141.84;26.14;23571.44;5073642;28;20204;-61
2022/06/24 05:15:58;;;;;;;4.60;3.38;;;32.30;91.60;;;-141.84;26.08;23520.59;5072853;28;20224;-59
2022/06/24 05:18:46;;;;;;;3.80;3.20;;;32.40;90.70;;;-141.84;26.11;23601.97;5072746;28;20227;-60
2022/06/24 05:21:19;;;;;;;3.92;3.10;;;32.60;90.70;;;-141.84;26.13;23673.16;5072771;28;20734;-61
2022/06/24 05:23:47;;;;;;;3.35;3.05;;;32.90;90.90;;;-141.84;25.98;23756.56;5055871;28;20225;-60
2022/06/24 05:26:18;;;;;;;3.30;3.10;;;33.00;92.00;;;-141.84;25.57;23854.22;5057081;28;20283;-59
2022/06/24 05:28:48;;;;;;;3.30;2.92;;;33.00;92.00;;;-141.84;25.52;23844.06;5072809;28;20219;-61
2022/06/24 05:31:17;;;;;;;5.20;2.72;;;;;;;-141.84;25.72;23699.63;5072836;28;20228;-60
2022/06/24 05:33:46;;;;;;;4.30;3.20;;;32.90;91.70;;;-141.84;25.76;23726.06;5076097;28;20219;-60
2022/06/24 05:36:15;;;;;;;3.80;3.13;;;32.80;90.90;;;-141.84;26.47;23496.19;5077821;28;20239;-60
2022/06/24 05:38:46;;;;;;;3.40;3.10;;;32.30;91.90;;;-141.84;26.62;23376.16;5071878;28;20684;-59
2022/06/24 05:41:14;;;;;;;3.95;3.65;;;32.10;93.90;;;-141.84;27.53;23054.75;5072245;28;20380;-60
2022/06/24 05:43:44;;;;;;;3.88;3.58;;;31.20;93.10;;;-141.84;28.81;22692.72;5071986;28;20262;-60
2022/06/24 05:46:14;;;;;;;3.95;3.55;;;30.40;95.40;;;-141.84;30.83;22294.09;5072357;28;20283;-60
2022/06/24 05:48:42;;;;;;;5.70;3.70;;;29.50;97.00;;;-141.84;31.81;22001.28;5067431;28;20320;-59
2022/06/24 05:51:12;;;;;;;3.83;3.50;;;28.70;96.50;;;-141.84;33.21;21763.34;5051633;28;20220;-61
2022/06/24 05:56:27;;;;;;;6.05;3.83;;;27.40;95.30;;;-141.84;34.95;21539.69;5051146;28;20236;-60
2022/06/24 05:58:57;;;;;;;5.10;3.65;;;26.80;95.70;;;-141.84;35.79;21456.34;5051865;28;20205;-60
2022/06/24 06:01:28;;;;;;;3.60;3.30;;;26.50;96.40;;;-141.84;36.34;21450.22;5052681;28;20197;-61
2022/06/24 06:03:56;;;;;;;3.90;3.50;;;26.40;97.10;;;-141.84;36.49;21431.94;5051756;28;20228;-59
2022/06/24 06:06:24;;;;;;;3.90;3.60;;;26.20;97.30;;;-141.84;36.97;21423.81;5067225;28;20228;-59
2022/06/24 06:08:53;;;;;;;6.47;3.88;;;26.20;97.70;;;-141.84;37.03;21401.44;5071598;28;20674;-60
2022/06/24 06:11:24;;;;;;;8.43;3.92;;;26.30;97.80;;;-141.84;37.02;21391.28;5071820;28;20228;-62
2022/06/24 06:13:54;;;;;;;4.93;3.72;;;26.20;97.90;;;-141.84;37.13;21362.81;5071652;28;20223;-61
2022/06/24 06:16:23;;;;;;;4.72;3.58;;;26.20;98.00;;;-141.84;36.98;21358.75;5072031;28;20643;-59
2022/06/24 06:18:53;;;;;;;4.75;3.70;;;26.20;97.90;;;-141.84;36.97;21403.47;5071079;28;20584;-59
2022/06/24 06:21:21;;;;;;;4.68;3.78;;;26.20;97.80;;;-141.84;36.90;21413.63;5071292;28;20244;-60
2022/06/24 06:23:50;;;;;;;4.68;3.85;;;26.20;97.80;;;-141.84;37.14;21411.59;5054016;28;20308;-60
2022/06/24 06:26:18;;;;;;;5.50;3.97;;;26.30;98.30;;;-141.84;36.75;21427.88;5051565;28;20233;-59
2022/06/24 06:28:46;;;;;;;4.15;3.75;;;26.40;98.00;;;-141.84;37.12;21419.72;5051560;28;20764;-60
2022/06/24 06:31:14;;;;;;;4.00;3.63;;;26.50;98.30;;;-141.84;36.95;21442.09;5083158;28;20226;-60
2022/06/24 06:33:43;;;;;;;4.22;3.40;;;26.50;98.10;;;-141.84;37.09;21452.25;5085656;28;20251;-59
2022/06/24 06:36:13;;;;;;;6.18;3.65;;;26.60;98.30;;;-141.84;36.73;21470.56;5071412;28;20307;-60
2022/06/24 06:38:42;;;;;;;6.90;3.88;;;26.60;98.30;;;-141.84;36.76;21458.38;5071116;28;20225;-60
2022/06/24 06:41:14;;;;;;;8.35;3.70;;;26.60;98.20;;;-141.84;36.26;21452.25;5071672;28;21185;-62
2022/06/24 06:43:42;;;;;;;5.78;3.60;;;26.50;97.70;;;-141.84;37.00;21503.09;5072164;28;20224;-60
2022/06/24 06:46:11;;;;;;;3.95;3.40;;;26.60;98.30;;;-141.84;36.68;21466.50;5071772;28;20212;-61
2022/06/24 06:48:40;;;;;;;6.22;4.07;;;26.60;98.10;;;-141.84;36.58;21480.72;5071186;28;20227;-60
2022/06/24 06:51:09;;;;;;;4.68;3.50;;;26.60;98.10;;;-141.84;36.34;21464.47;5071565;28;20687;-60
2022/06/24 06:53:39;;;;;;;3.85;3.55;;;26.70;98.00;;;-141.84;36.35;21499.03;5071220;28;20232;-60
2022/06/24 06:56:07;;;;;;;5.38;4.05;;;26.70;97.80;;;-141.84;36.49;21474.63;5058625;28;20235;-60
2022/06/24 06:58:35;;;;;;;5.30;3.53;;;26.70;97.90;;;-141.84;36.22;21497.00;5051511;28;20205;-60
2022/06/24 07:01:03;;;;;;;3.80;3.28;;;26.70;97.60;;;-141.84;35.96;21521.41;5051583;28;20350;-61
2022/06/24 07:03:31;;;;;;;5.07;3.30;;;26.70;97.40;;;-141.84;35.86;21507.16;5050345;28;20308;-60
2022/06/24 07:05:59;;;;;;;4.43;3.28;;;26.70;97.40;;;-141.84;35.84;21499.03;5061926;28;20608;-59
2022/06/24 07:08:28;;;;;;;3.97;3.15;;;26.70;97.60;;;-141.84;35.36;21558.00;5069755;28;20258;-59
2022/06/24 07:10:57;;;;;;;3.50;3.20;;;26.70;97.30;;;-141.84;35.80;21549.84;5069835;28;20259;-61
2022/06/24 07:13:27;;;;;;;4.07;3.35;;;26.80;97.40;;;-141.84;35.21;21588.50;5070030;28;20737;-59
2022/06/24 07:15:55;;;;;;;3.50;3.22;;;26.90;97.20;;;-141.84;34.73;21627.13;5069602;28;20319;-60
2022/06/24 07:18:23;;;;;;;4.00;2.88;;;27.10;96.70;;;-141.84;35.11;21621.03;5069728;28;20231;-59
2022/06/24 07:20:52;;;;;;;3.50;3.00;;;27.10;96.90;;;-141.84;34.63;21671.84;5071445;28;20308;-60
2022/06/24 07:23:20;;;;;;;4.00;3.60;;;27.20;96.50;;;-141.84;34.03;21665.75;5057622;28;20225;-59
2022/06/24 07:25:48;;;;;;;4.38;3.42;;;27.20;95.80;;;-141.84;34.56;21688.13;5053615;28;20208;-60
2022/06/24 07:28:17;;;;;;;3.97;3.25;;;27.30;96.20;;;-141.84;33.82;21753.19;5091338;28;20298;-59
2022/06/24 07:30:47;;;;;;;3.42;3.03;;;27.40;95.70;;;-141.84;33.64;21720.66;5091118;28;20599;-60
2022/06/24 07:33:15;;;;;;;4.53;2.60;;;27.30;95.50;;;-141.84;34.00;21669.81;5088401;28;20786;-62
2022/06/24 07:35:43;;;;;;;2.83;2.63;;;27.40;95.70;;;-141.84;33.32;21761.31;5070587;28;20267;-59
2022/06/24 07:38:20;;;;;;;3.10;2.80;;;27.50;95.20;;;-141.84;32.94;21736.94;5070863;28;20224;-60
2022/06/24 07:40:51;;;;;;;3.30;2.22;;;27.50;94.70;;;-141.84;32.89;21757.25;5070854;28;20221;-60
2022/06/24 07:43:21;;;;;;;3.13;2.88;;;27.50;94.60;;;-141.84;32.62;21777.59;5071569;28;20264;-62
2022/06/24 07:45:49;;;;;;;5.07;2.83;;;27.60;94.50;;;-141.84;32.70;21777.59;5070803;28;20307;-60
2022/06/24 07:48:17;;;;;;;2.60;2.20;;;27.60;94.60;;;-141.84;31.29;21858.94;5070575;28;20316;-60
2022/06/24 07:50:45;;;;;;;1.92;1.83;;;27.50;92.80;;;-141.84;30.67;21875.19;5070933;28;20263;-60
2022/06/24 07:53:13;;;;;;;3.33;1.90;;;27.60;92.40;;;-141.84;30.26;21915.88;5070996;28;20290;-60
2022/06/24 07:58:29;;;;;;;2.67;2.00;;;27.60;92.40;;;-141.84;30.19;21887.41;5071035;28;20247;-59
2022/06/24 08:00:57;;;;;;;2.20;2.00;;;27.60;91.80;;;-141.84;29.85;21960.59;5070583;28;20335;-59
2022/06/24 08:03:25;;;;;;;3.10;2.15;;;27.60;91.10;;;-141.84;29.21;21924.00;5070754;28;20320;-60
2022/06/24 08:05:53;;;;;;;4.15;2.00;;;27.60;90.40;;;-141.84;29.66;21919.94;5070774;28;20243;-60
2022/06/24 08:08:21;;;;;;;2.17;2.00;;;27.60;91.00;;;-141.84;29.98;21909.75;5070807;28;20308;-60
2022/06/24 08:10:50;;;;;;;2.42;2.10;;;27.60;91.10;;;-141.84;30.06;21891.47;5070507;28;20228;-60
2022/06/24 08:13:18;;;;;;;2.50;2.30;;;27.60;91.30;;;-141.84;30.59;21881.28;5070899;28;20515;-61
2022/06/24 08:15:47;;;;;;;2.20;1.98;;;27.50;91.90;;;-141.84;29.00;21991.09;5069734;28;20259;-60
2022/06/24 08:18:17;;;;;;;3.25;2.10;;;27.60;90.40;;;-141.84;29.38;21960.59;5069300;28;20224;-60
2022/06/24 08:20:45;;;;;;;2.85;1.90;;;27.50;90.40;;;-141.84;29.54;21901.63;5069465;28;20307;-61
2022/06/24 08:23:13;;;;;;;3.85;2.25;;;27.50;90.60;;;-141.84;29.30;21940.25;5081506;28;20231;-58
2022/06/24 08:25:41;;;;;;;2.40;2.22;;;27.60;90.40;;;-141.84;29.28;21956.53;5093941;28;20196;-60
2022/06/24 08:28:09;;;;;;;5.20;2.17;;;27.60;90.50;;;-141.84;29.71;21928.06;5093518;28;20225;-59
2022/06/24 08:30:37;;;;;;;2.20;2.10;;;27.60;90.80;;;-141.84;29.32;22005.34;5081750;28;20714;-60
2022/06/24 08:33:07;;;;;;;2.72;2.30;;;27.70;90.70;;;-141.84;29.92;21915.88;5073397;28;20311;-59
2022/06/24 08:35:35;;;;;;;2.55;2.35;;;27.60;91.00;;;-141.84;30.06;21940.25;5073311;28;20311;-60
2022/06/24 08:38:03;;;;;;;2.45;2.25;;;27.70;91.20;;;-141.84;29.70;21946.38;5073275;28;20244;-59
2022/06/24 08:40:32;;;;;;;3.50;2.20;;;27.70;91.00;;;-141.84;30.16;21936.19;5073553;28;20200;-61
2022/06/24 08:43:01;;;;;;;2.33;2.17;;;27.60;91.20;;;-141.84;29.99;21956.53;5072895;28;20244;-60
2022/06/24 08:45:30;;;;;;;3.03;2.60;;;27.60;91.20;;;-141.84;30.49;21936.19;5072658;28;20265;-60
2022/06/24 08:47:58;;;;;;;3.83;2.53;;;27.60;91.50;;;-141.84;30.26;21985.00;5072552;28;20235;-60
2022/06/24 08:50:28;;;;;;;2.92;2.38;;;27.70;91.70;;;-141.84;30.31;21964.66;5072611;28;20285;-60
2022/06/24 08:52:57;;;;;;;3.88;2.50;;;27.70;91.60;;;-141.84;30.11;21960.59;5072810;28;20411;-60
2022/06/24 08:55:26;;;;;;;3.03;2.47;;;27.80;91.40;;;-141.84;30.49;21950.44;5073179;28;20247;-59
2022/06/24 08:57:54;;;;;;;3.30;3.00;;;27.80;91.70;;;-141.84;30.53;21997.19;5072440;28;20642;-59
2022/06/24 09:00:23;;;;;;;6.18;3.10;;;27.80;91.80;;;-141.84;30.98;21982.97;5072751;28;20232;-60
2022/06/24 09:02:51;;;;;;;2.83;2.50;;;27.80;92.30;;;-141.84;30.57;21978.91;5072943;28;20282;-60
2022/06/24 09:05:19;;;;;;;2.80;2.60;;;27.80;91.90;;;-141.84;30.80;21954.50;5072564;28;20267;-60
2022/06/24 09:07:48;;;;;;;3.15;2.83;;;27.90;92.10;;;-141.84;31.29;21966.69;5072663;28;20296;-60
2022/06/24 09:10:17;;;;;;;4.30;3.00;;;27.90;92.80;;;-141.84;31.01;21954.50;5072935;28;20200;-59
2022/06/24 09:12:48;;;;;;;3.03;2.80;;;27.90;92.30;;;-141.84;31.11;21893.50;5072262;28;20228;-60
2022/06/24 09:15:17;;;;;;;2.88;2.58;;;27.80;92.30;;;-141.84;30.86;21966.69;5072233;28;20228;-60
2022/06/24 09:17:45;;;;;;;3.38;2.75;;;27.80;92.20;;;-141.84;30.92;21930.09;5072129;28;20719;-59
2022/06/24 09:20:17;;;;;;;4.05;2.95;;;27.80;92.10;;;-141.84;31.24;21942.31;5088626;28;20307;-59
2022/06/24 09:23:06;;;;;;;3.15;2.75;;;27.90;92.80;;;-141.84;31.39;21940.25;5081896;28;20243;-59
2022/06/24 09:25:46;;;;;;;5.05;2.80;;;27.90;92.80;;;-141.84;31.49;21924.00;5072693;28;20181;-59
2022/06/24 09:28:21;;;;;;;4.32;2.97;;;27.90;93.20;;;-141.84;31.74;21930.09;5072425;28;20232;-60
2022/06/24 09:30:51;;;;;;;3.45;3.05;;;27.90;93.10;;;-141.84;30.89;22011.44;5071912;28;20306;-58
2022/06/24 09:33:20;;;;;;;4.05;2.70;;;28.00;92.50;;;-141.84;31.21;22054.13;5071649;28;20232;-60
2022/06/24 09:36:06;;;;;;;3.97;3.05;;;28.20;93.00;;;-141.84;31.23;22074.47;5071724;28;20224;-59
2022/06/24 09:38:54;;;;;;;3.50;3.20;;;28.30;92.90;;;-141.84;31.02;22107.00;5071897;28;20315;-59
2022/06/24 09:41:23;;;;;;;3.83;3.00;;;28.40;93.00;;;-141.84;30.64;22143.63;5071760;28;20277;-59
2022/06/24 09:43:54;;;;;;;3.15;2.88;;;28.50;92.50;;;-141.84;30.83;22137.50;5072916;28;20770;-59
2022/06/24 09:46:24;;;;;;;3.25;3.00;;;28.60;92.60;;;-141.84;30.54;22121.25;5072869;28;20189;-59
2022/06/24 09:49:02;;;;;;;3.70;3.22;;;28.60;92.30;;;-141.84;30.66;22149.72;5072293;28;20221;-60
2022/06/24 09:51:31;;;;;;;4.63;3.13;;;28.70;92.50;;;-141.84;30.88;22129.38;5072466;28;20258;-59
2022/06/24 09:54:01;;;;;;;5.07;3.00;;;28.70;92.60;;;-141.84;30.65;22163.94;5072712;28;20704;-59
2022/06/24 09:56:32;;;;;;;3.95;3.17;;;28.70;92.70;;;-141.84;30.84;22139.56;5072152;28;20744;-59
2022/06/24 10:01:49;;;;;;;5.22;3.05;;;28.90;92.40;;;-141.84;30.42;22261.56;5072175;28;20797;-59
2022/06/24 10:04:18;;;;;;;3.75;3.22;;;29.10;92.40;;;-141.84;29.94;22285.97;5073150;28;20177;-60
2022/06/24 10:06:50;;;;;;;3.30;3.00;;;29.20;92.10;;;-141.84;29.94;22365.28;5072099;28;20220;-59
2022/06/24 10:09:25;;;;;;;3.60;3.15;;;29.30;92.30;;;-141.84;30.13;22351.03;5072354;28;20427;-59
2022/06/24 10:11:57;;;;;;;5.68;3.40;;;29.40;92.40;;;-141.84;30.21;22371.38;5068947;28;20224;-59
2022/06/24 10:14:28;;;;;;;4.38;3.28;;;29.50;92.50;;;-141.84;30.06;22369.34;5072935;28;20259;-60
2022/06/24 10:16:58;;;;;;;5.38;3.28;;;29.60;92.60;;;-141.84;30.66;22314.44;5072410;28;20212;-59
2022/06/24 10:19:28;;;;;;;7.57;5.18;;;29.40;92.60;;;-141.84;34.29;22161.91;5072581;28;20204;-59
2022/06/24 10:21:57;;;;;;;6.60;5.72;;;29.50;96.90;;;-141.84;36.57;22041.94;5071415;28;20233;-60
2022/06/24 10:24:41;;;;;;;7.93;6.13;;;29.30;99.10;;;-141.84;37.04;22013.47;5072558;28;20653;-64
2022/06/24 10:27:09;;;;;;;10.40;6.05;;;29.30;99.40;;;-141.84;38.25;21930.09;5071782;28;20660;-59
2022/06/24 10:29:37;;;;;;;6.63;6.00;;;29.10;99.90;;;-141.84;38.92;21863.00;5072347;28;20300;-61
2022/06/24 10:32:08;;;;;;;7.90;5.88;;;29.00;99.90;;;-141.84;38.92;21850.78;5072287;28;20315;-59